Time;durP1;ratioP1;P1;durP2;ratioP2;P2;SDS_P1;SDS_P2;PMS_P1;PMS_P2;Temp;Humidity;BMP_temperature;BMP_pressure;BME280_temperature;BME280_humidity;BME280_pressure;Samples;Min_cycle;Max_cycle;Signal;HPM_P1;HPM_P2
2022/11/16 00:01:01;;;;;;;25.33;16.23;;;;;;;;;;5031678;28;20063;-90
2022/11/16 00:03:27;;;;;;;18.30;15.55;;;;;;;;;;5059341;28;20066;-89
2022/11/16 00:05:57;;;;;;;20.85;14.80;;;;;;;;;;5050384;28;20792;-89
2022/11/16 00:08:23;;;;;;;22.67;15.40;;;;;;;;;;5059156;28;20043;-89
2022/11/16 00:10:50;;;;;;;20.75;14.43;;;;;;;;;;5063716;28;20069;-89
2022/11/16 00:13:16;;;;;;;19.85;13.20;;;;;;;;;;5059580;28;20048;-89
2022/11/16 00:15:42;;;;;;;20.88;14.27;;;;;;;;;;5042895;28;20405;-89
2022/11/16 00:18:08;;;;;;;18.60;13.15;;;;;;;;;;5077823;28;20044;-89
2022/11/16 00:20:34;;;;;;;20.08;13.10;;;;;;;;;;5043845;28;20925;-90
2022/11/16 00:23:00;;;;;;;24.10;14.00;;;;;;;;;;5041513;28;20063;-90
2022/11/16 00:25:26;;;;;;;17.05;12.90;;;;;;;;;;5056255;28;20140;-90
2022/11/16 00:27:52;;;;;;;18.10;13.30;;;;;;;;;;5040951;28;20047;-89
2022/11/16 00:30:18;;;;;;;19.77;13.60;;;;;;;;;;5071486;28;20922;-90
2022/11/16 00:32:45;;;;;;;15.82;12.43;;;;;;;;;;5058745;28;20044;-89
2022/11/16 00:35:11;;;;;;;21.83;14.43;;;;;;;;;;5078265;28;20051;-89
2022/11/16 00:37:37;;;;;;;24.65;13.40;;;;;;;;;;5037652;28;20135;-89
2022/11/16 00:40:03;;;;;;;18.13;13.70;;;;;;;;;;5068553;28;21591;-89
2022/11/16 00:42:29;;;;;;;24.10;12.73;;;;;;;;;;5033270;28;20441;-89
2022/11/16 00:45:01;;;;;;;18.83;13.73;;;;;;;;;;5050209;28;20055;-90
2022/11/16 00:47:27;;;;;;;23.63;14.27;;;;;;;;;;5054563;28;20055;-89
2022/11/16 00:49:53;;;;;;;21.83;14.40;;;;;;;;;;5067958;28;20556;-88
2022/11/16 00:52:19;;;;;;;18.38;13.40;;;;;;;;;;5048592;28;20048;-88
2022/11/16 00:54:45;;;;;;;20.10;14.77;;;;;;;;;;5043962;28;20051;-90
2022/11/16 00:57:11;;;;;;;20.45;14.38;;;;;;;;;;5057255;28;20081;-89
2022/11/16 00:59:37;;;;;;;22.98;15.52;;;;;;;;;;5037409;28;20051;-87
2022/11/16 01:02:03;;;;;;;21.45;15.35;;;;;;;;;;5051950;28;20716;-87
2022/11/16 01:04:29;;;;;;;31.65;16.58;;;;;;;;;;5035549;28;20760;-88
2022/11/16 01:06:55;;;;;;;21.30;16.77;;;;;;;;;;5062245;28;20061;-88
2022/11/16 01:09:21;;;;;;;21.58;16.00;;;;;;;;;;5061480;28;20067;-89
2022/11/16 01:14:32;;;;;;;25.95;17.80;;;;;;;;;;5070447;28;21056;-88
2022/11/16 01:16:59;;;;;;;25.33;17.08;;;;;;;;;;5072150;28;20103;-88
2022/11/16 01:19:25;;;;;;;28.27;19.92;;;;;;;;;;5044150;28;20052;-88
2022/11/16 01:21:51;;;;;;;24.83;21.08;;;;;;;;;;5078460;28;20044;-88
2022/11/16 01:24:17;;;;;;;24.85;21.70;;;;;;;;;;5040971;28;20040;-87
2022/11/16 01:26:43;;;;;;;22.90;19.38;;;;;;;;;;5077387;28;20098;-88
2022/11/16 01:29:09;;;;;;;27.38;21.08;;;;;;;;;;5067950;28;20048;-88
2022/11/16 01:31:35;;;;;;;26.77;21.90;;;;;;;;;;5074438;28;20632;-88
2022/11/16 01:34:02;;;;;;;27.10;21.00;;;;;;;;;;5037640;28;20593;-87
2022/11/16 01:36:28;;;;;;;25.60;19.23;;;;;;;;;;5077334;28;20391;-88
2022/11/16 01:38:54;;;;;;;26.98;19.55;;;;;;;;;;5039356;28;20052;-88
2022/11/16 01:41:22;;;;;;;18.85;15.55;;;;;;;;;;5060707;28;20048;-90
2022/11/16 01:43:49;;;;;;;20.73;15.48;;;;;;;;;;5058135;28;20063;-87
2022/11/16 01:46:16;;;;;;;20.48;14.68;;;;;;;;;;5075131;28;20086;-88
2022/11/16 01:48:42;;;;;;;16.77;13.05;;;;;;;;;;5042264;28;20529;-88
2022/11/16 01:51:08;;;;;;;17.42;14.30;;;;;;;;;;5058261;28;20058;-88
2022/11/16 01:53:35;;;;;;;16.75;14.05;;;;;;;;;;5057273;28;20107;-88
2022/11/16 01:56:02;;;;;;;23.52;14.32;;;;;;;;;;5070154;28;20040;-88
2022/11/16 01:58:28;;;;;;;18.35;14.45;;;;;;;;;;5056495;28;20051;-88
2022/11/16 02:00:54;;;;;;;20.15;14.35;;;;;;;;;;5050503;28;20044;-89
2022/11/16 02:03:21;;;;;;;17.02;13.55;;;;;;;;;;5057105;28;20060;-88
2022/11/16 02:05:47;;;;;;;18.75;13.40;;;;;;;;;;5064670;28;20036;-90
2022/11/16 02:11:15;;;;;;;21.15;13.73;;;;;;;;;;5028958;28;20052;-90
2022/11/16 02:14:00;;;;;;;19.60;12.43;;;;;;;;;;5075022;28;20064;-88
2022/11/16 02:16:50;;;;;;;21.73;12.05;;;;;;;;;;5079718;28;20110;-88
2022/11/16 02:19:22;;;;;;;22.98;10.88;;;;;;;;;;5078558;28;20047;-88
2022/11/16 02:22:00;;;;;;;18.60;11.48;;;;;;;;;;5060363;28;20044;-89
2022/11/16 02:24:26;;;;;;;17.60;11.00;;;;;;;;;;5062873;28;20084;-89
2022/11/16 02:27:10;;;;;;;23.15;11.93;;;;;;;;;;5078146;28;21679;-88
2022/11/16 02:29:50;;;;;;;17.08;10.57;;;;;;;;;;5077404;28;20170;-88
2022/11/16 02:32:42;;;;;;;18.40;11.27;;;;;;;;;;5079920;28;20050;-88
2022/11/16 02:35:20;;;;;;;20.30;12.38;;;;;;;;;;5070609;28;20134;-88
2022/11/16 02:38:01;;;;;;;15.98;11.82;;;;;;;;;;5058625;28;20048;-88
2022/11/16 02:40:29;;;;;;;17.70;11.60;;;;;;;;;;5074016;28;20135;-90
2022/11/16 02:43:03;;;;;;;19.17;12.60;;;;;;;;;;5074506;28;20097;-89
2022/11/16 02:45:32;;;;;;;23.60;12.02;;;;;;;;;;5061320;28;20812;-90
2022/11/16 02:48:01;;;;;;;19.45;11.40;;;;;;;;;;5071866;28;20067;-90
2022/11/16 02:50:28;;;;;;;18.40;11.98;;;;;;;;;;5057043;28;20238;-89
2022/11/16 02:52:55;;;;;;;14.77;10.35;;;;;;;;;;5076823;28;20040;-89
2022/11/16 02:55:22;;;;;;;22.52;11.75;;;;;;;;;;5074238;28;20550;-89
2022/11/16 02:57:51;;;;;;;16.02;10.85;;;;;;;;;;5058036;28;20051;-88
2022/11/16 03:00:24;;;;;;;13.68;10.80;;;;;;;;;;5046180;28;20055;-89
2022/11/16 03:03:06;;;;;;;16.92;11.80;;;;;;;;;;5068078;28;20056;-89
2022/11/16 03:05:38;;;;;;;20.42;11.98;;;;;;;;;;5074080;28;20043;-89
2022/11/16 03:08:12;;;;;;;21.50;12.82;;;;;;;;;;5071515;28;20041;-88
2022/11/16 03:13:27;;;;;;;23.30;12.90;;;;;;;;;;5064284;28;21350;-90
2022/11/16 03:15:54;;;;;;;19.38;10.80;;;;;;;;;;5071389;28;20044;-90
2022/11/16 03:18:21;;;;;;;23.83;11.77;;;;;;;;;;5057077;28;20074;-90
2022/11/16 03:20:48;;;;;;;20.63;11.48;;;;;;;;;;5057232;28;20032;-91
2022/11/16 03:23:15;;;;;;;27.00;12.30;;;;;;;;;;5074764;28;20052;-90
2022/11/16 03:25:51;;;;;;;23.13;12.60;;;;;;;;;;5071628;28;20857;-90
2022/11/16 03:28:17;;;;;;;19.52;12.07;;;;;;;;;;5058056;28;20116;-90
2022/11/16 03:30:47;;;;;;;23.20;11.85;;;;;;;;;;5073922;28;20064;-89
2022/11/16 03:33:13;;;;;;;16.33;11.85;;;;;;;;;;5071205;28;20102;-90
2022/11/16 03:35:59;;;;;;;22.63;13.15;;;;;;;;;;5073717;28;20048;-91
2022/11/16 03:38:25;;;;;;;17.95;12.43;;;;;;;;;;5054775;28;20107;-91
2022/11/16 03:40:54;;;;;;;25.40;13.25;;;;;;;;;;5081594;28;20093;-91
2022/11/16 03:43:20;;;;;;;29.25;14.25;;;;;;;;;;5073270;28;20117;-91
2022/11/16 03:45:46;;;;;;;23.25;13.65;;;;;;;;;;5065258;28;20048;-93
2022/11/16 03:48:14;;;;;;;22.90;14.00;;;;;;;;;;5069102;28;21048;-90
2022/11/16 03:50:40;;;;;;;19.77;13.65;;;;;;;;;;5056591;28;20141;-90
2022/11/16 03:53:06;;;;;;;22.00;16.13;;;;;;;;;;5047762;28;20201;-90
2022/11/16 03:55:32;;;;;;;30.67;16.38;;;;;;;;;;5070908;28;20052;-91
2022/11/16 03:57:58;;;;;;;23.15;17.00;;;;;;;;;;5056457;28;20110;-89
2022/11/16 04:00:24;;;;;;;25.95;17.52;;;;;;;;;;5052507;28;20787;-89
2022/11/16 04:02:51;;;;;;;23.42;17.65;;;;;;;;;;5058495;28;20351;-90
2022/11/16 04:24:41;;;;;;;20.48;11.98;;;;;;;;;;5068949;28;20048;-89
2022/11/16 04:29:54;;;;;;;25.10;13.20;;;;;;;;;;5073949;28;20129;-89
2022/11/16 04:37:53;;;;;;;26.08;14.95;;;;;;;;;;5073027;28;20044;-89
2022/11/16 04:40:20;;;;;;;29.10;14.43;;;;;;;;;;5077760;28;20047;-91
2022/11/16 04:42:54;;;;;;;27.42;14.50;;;;;;;;;;5061498;28;20040;-90
2022/11/16 04:48:05;;;;;;;25.25;15.27;;;;;;;;;;5079888;28;20074;-90
2022/11/16 04:50:32;;;;;;;28.38;16.58;;;;;;;;;;5079928;28;20048;-91
2022/11/16 04:52:59;;;;;;;28.80;17.42;;;;;;;;;;5079045;28;20649;-91
2022/11/16 04:55:25;;;;;;;36.22;17.40;;;;;;;;;;5063928;28;20051;-89
2022/11/16 04:57:51;;;;;;;32.80;16.58;;;;;;;;;;5080352;28;20048;-91
2022/11/16 05:00:18;;;;;;;29.20;17.15;;;;;;;;;;5089638;28;20036;-91
2022/11/16 05:02:44;;;;;;;30.40;18.20;;;;;;;;;;5078439;28;20079;-92
2022/11/16 05:05:10;;;;;;;32.15;22.08;;;;;;;;;;5049977;28;20380;-92
2022/11/16 05:07:36;;;;;;;34.95;22.85;;;;;;;;;;5078470;28;20052;-91
2022/11/16 05:10:03;;;;;;;32.20;22.83;;;;;;;;;;5062633;28;20051;-90
2022/11/16 05:12:29;;;;;;;38.58;26.17;;;;;;;;;;5079585;28;20107;-92
2022/11/16 05:14:55;;;;;;;38.22;25.13;;;;;;;;;;5076402;28;20052;-91
2022/11/16 05:17:22;;;;;;;38.63;28.05;;;;;;;;;;5089215;27;20032;-91
2022/11/16 05:22:34;;;;;;;44.00;31.42;;;;;;;;;;5075843;28;20060;-90
2022/11/16 05:25:00;;;;;;;50.25;33.97;;;;;;;;;;5081492;28;20044;-92
2022/11/16 05:27:27;;;;;;;46.17;32.97;;;;;;;;;;5066557;28;20044;-91
2022/11/16 05:29:53;;;;;;;49.30;34.33;;;;;;;;;;5078384;28;20058;-90
2022/11/16 05:32:20;;;;;;;53.50;38.30;;;;;;;;;;5064978;28;20556;-90
2022/11/16 05:34:47;;;;;;;45.22;34.40;;;;;;;;;;5079117;28;20070;-91
2022/11/16 05:37:13;;;;;;;49.15;32.80;;;;;;;;;;5082189;28;20044;-90
2022/11/16 05:39:39;;;;;;;42.10;32.42;;;;;;;;;;5056427;28;20047;-90
2022/11/16 05:42:06;;;;;;;39.08;29.08;;;;;;;;;;5084991;28;20214;-90
2022/11/16 05:44:32;;;;;;;49.08;29.27;;;;;;;;;;5061305;28;20324;-90
2022/11/16 05:47:01;;;;;;;40.13;27.40;;;;;;;;;;5081898;28;20048;-92
2022/11/16 05:49:28;;;;;;;35.35;27.38;;;;;;;;;;5056870;28;20095;-92
2022/11/16 05:51:54;;;;;;;35.72;25.55;;;;;;;;;;5083432;28;20044;-92
2022/11/16 05:54:23;;;;;;;31.58;24.77;;;;;;;;;;5083674;28;20067;-92
2022/11/16 05:56:49;;;;;;;27.02;21.75;;;;;;;;;;5084328;28;20099;-91
2022/11/16 05:59:17;;;;;;;26.33;21.15;;;;;;;;;;5084041;28;20048;-91
2022/11/16 06:01:43;;;;;;;30.98;25.00;;;;;;;;;;5073799;28;20059;-92
2022/11/16 06:04:09;;;;;;;30.20;22.80;;;;;;;;;;5073631;28;20050;-91
2022/11/16 06:06:35;;;;;;;29.10;22.05;;;;;;;;;;5087911;28;20043;-91
2022/11/16 06:09:01;;;;;;;31.52;22.08;;;;;;;;;;5074036;28;20055;-91
2022/11/16 06:11:28;;;;;;;31.75;24.77;;;;;;;;;;5086006;28;20055;-91
2022/11/16 06:13:54;;;;;;;30.45;24.08;;;;;;;;;;5066380;28;20194;-91
2022/11/16 06:16:21;;;;;;;38.10;29.08;;;;;;;;;;5080962;28;20051;-92
2022/11/16 06:18:48;;;;;;;33.85;26.15;;;;;;;;;;5087891;28;20051;-91
2022/11/16 06:21:15;;;;;;;36.88;27.83;;;;;;;;;;5076607;28;20398;-91
2022/11/16 06:23:41;;;;;;;40.03;28.75;;;;;;;;;;5077705;28;20060;-91
2022/11/16 06:26:07;;;;;;;50.17;36.42;;;;;;;;;;5064227;28;20036;-92
2022/11/16 06:28:33;;;;;;;38.10;29.92;;;;;;;;;;5064547;28;20046;-92
2022/11/16 06:30:59;;;;;;;40.28;28.88;;;;;;;;;;5077172;28;20044;-92
2022/11/16 06:33:25;;;;;;;28.35;22.65;;;;;;;;;;5062646;28;20120;-92
2022/11/16 06:35:51;;;;;;;27.38;20.85;;;;;;;;;;5064485;28;20103;-93
2022/11/16 06:38:18;;;;;;;25.63;20.75;;;;;;;;;;5041053;28;20039;-92
2022/11/16 06:40:45;;;;;;;23.35;19.88;;;;;;;;;;5063993;28;20730;-92
2022/11/16 06:43:11;;;;;;;25.88;20.25;;;;;;;;;;5079132;28;20039;-92
2022/11/16 06:45:38;;;;;;;23.52;18.70;;;;;;;;;;5034255;28;20071;-91
2022/11/16 06:48:04;;;;;;;26.25;20.38;;;;;;;;;;5071719;28;20047;-92
2022/11/16 06:50:30;;;;;;;26.45;18.85;;;;;;;;;;5060635;28;20036;-92
2022/11/16 06:52:59;;;;;;;27.23;20.63;;;;;;;;;;5042537;28;20230;-92
2022/11/16 06:55:25;;;;;;;22.20;18.58;;;;;;;;;;5061607;28;20047;-91
2022/11/16 06:57:51;;;;;;;27.20;20.88;;;;;;;;;;5073669;28;20055;-91
2022/11/16 07:00:18;;;;;;;24.45;19.55;;;;;;;;;;5043198;28;21310;-90
2022/11/16 07:02:44;;;;;;;26.20;20.90;;;;;;;;;;5061829;28;20053;-91
2022/11/16 07:05:10;;;;;;;26.65;21.35;;;;;;;;;;5041516;28;20048;-92
2022/11/16 07:07:36;;;;;;;25.20;19.65;;;;;;;;;;5061719;28;20040;-90
2022/11/16 07:10:03;;;;;;;25.95;20.45;;;;;;;;;;5045880;28;20047;-88
2022/11/16 07:12:29;;;;;;;28.70;20.70;;;;;;;;;;5059432;28;20694;-90
2022/11/16 07:14:55;;;;;;;29.58;21.48;;;;;;;;;;5064750;28;20075;-90
2022/11/16 07:17:21;;;;;;;30.08;20.80;;;;;;;;;;5055887;28;20048;-90
2022/11/16 07:19:47;;;;;;;29.80;23.00;;;;;;;;;;5056460;28;20082;-90
2022/11/16 07:22:13;;;;;;;34.05;23.83;;;;;;;;;;5084111;28;20280;-90
2022/11/16 07:24:39;;;;;;;36.58;24.02;;;;;;;;;;5047927;28;20079;-91
2022/11/16 07:27:07;;;;;;;33.05;24.35;;;;;;;;;;5064058;28;20111;-91
2022/11/16 07:29:33;;;;;;;37.83;24.55;;;;;;;;;;5060587;28;20044;-92
2022/11/16 07:31:59;;;;;;;47.53;26.25;;;;;;;;;;5055668;28;20048;-90
2022/11/16 07:34:25;;;;;;;34.70;25.25;;;;;;;;;;5051422;28;20054;-90
2022/11/16 07:36:52;;;;;;;34.00;24.40;;;;;;;;;;5059597;28;20047;-92
2022/11/16 07:39:18;;;;;;;35.67;23.83;;;;;;;;;;5038148;28;20047;-91
2022/11/16 07:41:45;;;;;;;40.20;25.15;;;;;;;;;;5038147;28;20067;-92
2022/11/16 07:44:11;;;;;;;39.53;24.67;;;;;;;;;;5037865;28;20059;-92
2022/11/16 07:46:37;;;;;;;40.15;27.05;;;;;;;;;;5045403;28;20679;-92
2022/11/16 07:49:04;;;;;;;45.67;28.75;;;;;;;;;;5040151;28;20044;-93
2022/11/16 07:51:31;;;;;;;42.95;28.85;;;;;;;;;;5051496;28;20040;-92
2022/11/16 07:53:58;;;;;;;33.47;26.20;;;;;;;;;;5055413;28;20036;-92
2022/11/16 07:56:24;;;;;;;38.75;27.48;;;;;;;;;;5049315;28;20256;-93
2022/11/16 07:58:51;;;;;;;40.72;28.20;;;;;;;;;;5055436;28;20076;-92
2022/11/16 08:01:18;;;;;;;45.05;29.40;;;;;;;;;;5044693;28;20541;-90
2022/11/16 08:03:45;;;;;;;43.45;29.85;;;;;;;;;;5030238;28;20067;-90
2022/11/16 08:06:19;;;;;;;41.72;28.38;;;;;;;;;;5033698;28;20068;-93
2022/11/16 08:08:45;;;;;;;45.83;30.20;;;;;;;;;;5042539;28;20119;-93
2022/11/16 08:11:11;;;;;;;53.55;31.98;;;;;;;;;;5058979;28;20040;-93
2022/11/16 08:13:39;;;;;;;40.15;28.52;;;;;;;;;;5075634;28;20078;-93
2022/11/16 08:16:08;;;;;;;40.70;29.33;;;;;;;;;;5053749;28;20079;-93
2022/11/16 08:18:34;;;;;;;38.75;27.92;;;;;;;;;;5056403;28;20052;-92
2022/11/16 08:21:01;;;;;;;31.10;23.58;;;;;;;;;;5059414;28;20048;-94
2022/11/16 08:23:31;;;;;;;28.50;22.27;;;;;;;;;;5060921;28;20121;-93
2022/11/16 08:25:59;;;;;;;27.27;20.17;;;;;;;;;;5054113;28;20059;-93
2022/11/16 08:28:29;;;;;;;31.17;22.90;;;;;;;;;;5053310;28;20074;-93
2022/11/16 08:30:56;;;;;;;30.65;23.13;;;;;;;;;;5055196;28;20107;-91
2022/11/16 08:33:23;;;;;;;35.42;25.20;;;;;;;;;;5047066;28;20054;-91
2022/11/16 08:35:50;;;;;;;34.50;25.25;;;;;;;;;;5036564;28;20536;-91
2022/11/16 08:38:17;;;;;;;36.08;25.35;;;;;;;;;;5034743;28;20070;-91
2022/11/16 08:40:44;;;;;;;36.72;27.10;;;;;;;;;;5048746;28;20050;-92
2022/11/16 08:43:10;;;;;;;38.08;27.67;;;;;;;;;;5043215;28;20058;-91
2022/11/16 08:45:37;;;;;;;36.97;26.38;;;;;;;;;;5049024;28;20142;-91
2022/11/16 08:48:04;;;;;;;33.72;26.45;;;;;;;;;;5052191;28;20043;-91
2022/11/16 08:50:30;;;;;;;35.22;26.73;;;;;;;;;;5039319;28;20054;-92
2022/11/16 08:52:57;;;;;;;32.60;25.75;;;;;;;;;;5051595;28;20063;-90
2022/11/16 08:55:24;;;;;;;38.30;27.60;;;;;;;;;;5053222;28;20047;-92
2022/11/16 08:57:50;;;;;;;34.17;24.88;;;;;;;;;;5053722;28;20040;-90
2022/11/16 09:00:16;;;;;;;32.80;24.80;;;;;;;;;;5050947;28;20094;-91
2022/11/16 09:02:43;;;;;;;32.15;25.33;;;;;;;;;;5062767;28;20067;-91
2022/11/16 09:05:10;;;;;;;32.38;25.13;;;;;;;;;;5058635;28;21916;-91
2022/11/16 09:07:42;;;;;;;31.60;24.98;;;;;;;;;;5045526;28;20067;-92
2022/11/16 09:10:08;;;;;;;33.70;25.30;;;;;;;;;;5056533;28;20048;-92
2022/11/16 09:12:35;;;;;;;34.95;26.27;;;;;;;;;;5060528;28;20036;-91
2022/11/16 09:15:01;;;;;;;30.50;23.40;;;;;;;;;;5071880;28;20036;-91
2022/11/16 09:17:27;;;;;;;30.83;24.48;;;;;;;;;;5064544;28;20734;-94
2022/11/16 09:19:53;;;;;;;26.38;22.42;;;;;;;;;;5046531;28;20054;-91
2022/11/16 09:22:19;;;;;;;26.27;21.95;;;;;;;;;;5059710;28;20048;-91
2022/11/16 09:24:46;;;;;;;26.35;22.02;;;;;;;;;;5065400;28;20032;-92
2022/11/16 09:27:13;;;;;;;27.92;22.10;;;;;;;;;;5063220;28;20043;-92
2022/11/16 09:29:39;;;;;;;27.60;23.05;;;;;;;;;;5053315;28;20196;-92
2022/11/16 09:32:06;;;;;;;26.70;22.67;;;;;;;;;;5061689;28;20044;-92
2022/11/16 09:34:35;;;;;;;25.67;22.13;;;;;;;;;;5061670;28;20047;-92
2022/11/16 09:37:02;;;;;;;23.52;20.77;;;;;;;;;;5060023;28;20435;-93
2022/11/16 09:39:31;;;;;;;27.95;22.77;;;;;;;;;;5059830;28;20377;-92
2022/11/16 09:42:16;;;;;;;25.30;21.95;;;;;;;;;;5066338;28;20081;-92
2022/11/16 09:44:45;;;;;;;29.73;21.08;;;;;;;;;;5052796;28;20534;-91
2022/11/16 09:47:17;;;;;;;24.48;20.52;;;;;;;;;;5055096;28;20058;-92
2022/11/16 09:49:47;;;;;;;27.30;21.92;;;;;;;;;;5063862;28;20533;-92
2022/11/16 09:52:19;;;;;;;24.65;20.27;;;;;;;;;;5063664;28;20040;-92
2022/11/16 09:54:46;;;;;;;28.83;23.38;;;;;;;;;;5066396;28;20059;-91
2022/11/16 09:57:15;;;;;;;28.67;23.63;;;;;;;;;;5055731;28;20082;-90
2022/11/16 09:59:52;;;;;;;27.05;23.05;;;;;;;;;;5055007;28;20043;-91
2022/11/16 10:02:22;;;;;;;28.27;23.27;;;;;;;;;;5075534;28;20051;-91
2022/11/16 10:04:53;;;;;;;27.10;23.27;;;;;;;;;;5064906;28;20079;-91
2022/11/16 10:07:24;;;;;;;28.50;22.52;;;;;;;;;;5059980;28;20048;-92
2022/11/16 10:09:50;;;;;;;27.65;23.30;;;;;;;;;;5067508;28;20123;-91
2022/11/16 10:12:21;;;;;;;29.35;23.95;;;;;;;;;;5068176;28;20044;-91
2022/11/16 10:15:06;;;;;;;28.77;24.08;;;;;;;;;;5066724;28;20101;-92
2022/11/16 10:17:44;;;;;;;26.55;23.63;;;;;;;;;;5068557;28;20103;-92
2022/11/16 10:20:40;;;;;;;34.58;29.42;;;;;;;;;;5067103;28;20502;-92
2022/11/16 10:23:22;;;;;;;29.65;25.17;;;;;;;;;;5013916;28;20050;-91
2022/11/16 10:25:57;;;;;;;31.38;25.45;;;;;;;;;;5052060;28;20075;-92
2022/11/16 10:28:24;;;;;;;28.42;23.85;;;;;;;;;;5061585;28;20051;-91
2022/11/16 10:31:09;;;;;;;31.27;27.85;;;;;;;;;;5062525;28;20032;-90
2022/11/16 10:33:36;;;;;;;27.13;24.20;;;;;;;;;;5053940;28;20044;-91
2022/11/16 10:36:12;;;;;;;34.10;30.42;;;;;;;;;;5065225;28;20051;-91
2022/11/16 10:38:38;;;;;;;34.20;30.52;;;;;;;;;;5061269;28;20090;-91
2022/11/16 10:41:18;;;;;;;33.17;28.08;;;;;;;;;;5051198;28;20105;-93
2022/11/16 10:43:45;;;;;;;31.00;27.70;;;;;;;;;;5078205;28;20189;-93
2022/11/16 10:46:23;;;;;;;28.30;25.23;;;;;;;;;;5061483;28;20043;-93
2022/11/16 10:49:10;;;;;;;27.17;24.42;;;;;;;;;;5062882;28;20039;-93
2022/11/16 10:51:36;;;;;;;27.73;24.92;;;;;;;;;;5063227;28;20080;-94
2022/11/16 10:54:11;;;;;;;32.25;28.73;;;;;;;;;;5050590;28;20112;-93
2022/11/16 10:56:40;;;;;;;34.70;30.52;;;;;;;;;;5058967;28;20051;-93
2022/11/16 10:59:07;;;;;;;33.72;30.13;;;;;;;;;;5061917;28;20051;-92
2022/11/16 11:01:35;;;;;;;30.13;25.98;;;;;;;;;;5049884;28;21889;-93
2022/11/16 11:04:14;;;;;;;28.27;25.30;;;;;;;;;;5053455;28;20071;-92
2022/11/16 11:06:40;;;;;;;28.98;25.88;;;;;;;;;;5056539;28;20191;-93
2022/11/16 11:09:22;;;;;;;29.80;26.45;;;;;;;;;;5064356;28;20046;-93
2022/11/16 11:15:01;;;;;;;24.95;22.42;;;;;;;;;;5081200;28;20457;-94
2022/11/16 11:17:27;;;;;;;24.73;22.15;;;;;;;;;;5059790;28;20043;-93
2022/11/16 11:19:59;;;;;;;23.67;20.50;;;;;;;;;;5062455;28;20052;-93
2022/11/16 11:22:25;;;;;;;25.88;23.30;;;;;;;;;;5058920;28;20040;-93
2022/11/16 11:24:51;;;;;;;27.30;24.40;;;;;;;;;;5060298;28;20188;-92
2022/11/16 11:27:22;;;;;;;26.98;24.13;;;;;;;;;;5043238;28;20170;-92
2022/11/16 11:29:57;;;;;;;21.67;19.58;;;;;;;;;;5063240;28;20059;-93
2022/11/16 11:32:25;;;;;;;21.08;18.88;;;;;;;;;;5061141;28;20052;-93
2022/11/16 11:34:52;;;;;;;22.88;20.58;;;;;;;;;;5060290;28;20063;-93
2022/11/16 11:37:21;;;;;;;31.90;24.23;;;;;;;;;;5061177;28;20572;-92
2022/11/16 11:39:47;;;;;;;30.13;21.27;;;;;;;;;;5056708;28;20063;-91
2022/11/16 11:42:14;;;;;;;25.30;22.27;;;;;;;;;;5043515;28;20075;-93
2022/11/16 11:44:49;;;;;;;26.15;22.55;;;;;;;;;;5045874;28;22022;-91
2022/11/16 11:47:18;;;;;;;29.58;25.30;;;;;;;;;;5052150;28;20075;-91
2022/11/16 11:49:48;;;;;;;24.67;21.73;;;;;;;;;;5044908;28;20051;-91
2022/11/16 11:52:24;;;;;;;32.88;27.65;;;;;;;;;;5049905;28;20050;-92
2022/11/16 11:54:53;;;;;;;37.25;31.83;;;;;;;;;;5065805;28;20044;-92
2022/11/16 11:57:21;;;;;;;36.28;30.13;;;;;;;;;;5079573;28;20044;-93
2022/11/16 11:59:50;;;;;;;23.38;20.23;;;;;;;;;;5047682;28;20115;-92
2022/11/16 12:02:22;;;;;;;26.33;23.52;;;;;;;;;;5068157;28;20051;-93
2022/11/16 12:04:57;;;;;;;24.70;20.98;;;;;;;;;;5047712;28;20059;-92
2022/11/16 12:07:26;;;;;;;24.63;22.02;;;;;;;;;;5051406;28;20516;-93
2022/11/16 12:10:04;;;;;;;23.33;19.75;;;;;;;;;;5059598;28;20040;-93
2022/11/16 12:12:37;;;;;;;21.30;19.00;;;;;;;;;;5060048;28;20069;-93
2022/11/16 12:15:06;;;;;;;22.60;20.02;;;;;;;;;;5059637;28;20055;-93
2022/11/16 12:17:39;;;;;;;23.13;19.25;;;;;;;;;;5076992;28;20056;-93
2022/11/16 12:20:11;;;;;;;19.55;17.50;;;;;;;;;;5059537;28;20032;-92
2022/11/16 12:22:56;;;;;;;20.98;18.80;;;;;;;;;;5061084;28;20040;-93
2022/11/16 12:25:25;;;;;;;21.48;17.63;;;;;;;;;;5062225;28;21315;-93
2022/11/16 12:28:12;;;;;;;19.50;17.20;;;;;;;;;;5060851;28;20051;-94
2022/11/16 12:30:50;;;;;;;20.13;16.42;;;;;;;;;;5016719;28;20135;-93
2022/11/16 12:33:41;;;;;;;17.38;14.48;;;;;;;;;;5060389;28;20040;-90
2022/11/16 12:36:24;;;;;;;19.55;12.68;;;;;;;;;;5063433;28;20062;-93
2022/11/16 12:38:53;;;;;;;16.88;12.13;;;;;;;;;;5057741;28;20044;-93
2022/11/16 12:41:30;;;;;;;15.35;12.18;;;;;;;;;;5061364;28;20059;-93
2022/11/16 12:44:05;;;;;;;13.88;10.63;;;;;;;;;;5079677;28;20079;-92
2022/11/16 12:46:39;;;;;;;14.75;11.30;;;;;;;;;;5058047;28;20416;-94
2022/11/16 12:49:18;;;;;;;18.33;11.90;;;;;;;;;;5063198;28;20040;-94
2022/11/16 12:52:04;;;;;;;23.38;13.63;;;;;;;;;;5050459;28;20044;-94
2022/11/16 12:54:40;;;;;;;21.30;10.02;;;;;;;;;;5060242;28;20134;-93
2022/11/16 12:57:11;;;;;;;12.00;9.45;;;;;;;;;;5062212;28;20072;-93
2022/11/16 12:59:50;;;;;;;26.85;11.85;;;;;;;;;;5065209;28;20063;-93
2022/11/16 13:02:22;;;;;;;14.52;10.30;;;;;;;;;;5058543;28;20055;-92
2022/11/16 13:04:56;;;;;;;19.23;12.38;;;;;;;;;;5058610;28;20063;-92
2022/11/16 13:07:28;;;;;;;13.48;8.65;;;;;;;;;;5060902;28;20048;-92
2022/11/16 13:09:58;;;;;;;18.40;8.00;;;;;;;;;;5075352;28;20044;-93
2022/11/16 13:12:24;;;;;;;17.05;7.93;;;;;;;;;;5069422;28;20052;-91
2022/11/16 13:14:52;;;;;;;15.48;8.43;;;;;;;;;;5074079;28;20389;-92
2022/11/16 13:17:23;;;;;;;20.38;12.98;;;;;;;;;;5063300;28;20346;-93
2022/11/16 13:20:04;;;;;;;30.95;18.05;;;;;;;;;;5064890;28;20051;-93
2022/11/16 13:22:31;;;;;;;25.77;13.77;;;;;;;;;;5064441;28;20048;-92
2022/11/16 13:24:57;;;;;;;24.08;11.23;;;;;;;;;;5063156;28;20044;-92
2022/11/16 13:27:27;;;;;;;28.05;16.83;;;;;;;;;;5064333;28;20162;-93
2022/11/16 13:30:05;;;;;;;15.77;10.30;;;;;;;;;;5061841;28;20059;-92
2022/11/16 13:32:46;;;;;;;18.50;8.05;;;;;;;;;;5079061;28;20043;-93
2022/11/16 13:35:16;;;;;;;13.85;7.78;;;;;;;;;;5064754;28;20036;-91
2022/11/16 13:37:43;;;;;;;17.75;9.43;;;;;;;;;;5060741;28;20036;-92
2022/11/16 13:40:10;;;;;;;11.15;8.35;;;;;;;;;;5081106;28;20111;-93
2022/11/16 13:42:41;;;;;;;12.30;7.68;;;;;;;;;;5082613;28;20082;-93
2022/11/16 13:45:18;;;;;;;12.55;8.85;;;;;;;;;;5056602;28;20521;-92
2022/11/16 13:47:49;;;;;;;15.18;9.30;;;;;;;;;;5067588;28;20048;-94
2022/11/16 13:50:19;;;;;;;8.68;6.10;;;;;;;;;;5062539;28;20036;-93
2022/11/16 13:52:50;;;;;;;10.50;6.60;;;;;;;;;;5080545;28;20060;-93
2022/11/16 13:55:30;;;;;;;14.25;6.30;;;;;;;;;;5060278;28;20040;-94
2022/11/16 13:57:57;;;;;;;12.55;6.20;;;;;;;;;;5073897;28;20044;-94
2022/11/16 14:00:27;;;;;;;10.38;5.63;;;;;;;;;;5059356;28;20040;-94
2022/11/16 14:03:12;;;;;;;12.10;5.20;;;;;;;;;;5088192;28;20082;-93
2022/11/16 14:05:40;;;;;;;11.77;5.45;;;;;;;;;;5086849;28;20054;-93
2022/11/16 14:08:19;;;;;;;21.88;12.90;;;;;;;;;;5087233;28;20087;-94
2022/11/16 14:10:51;;;;;;;18.60;11.25;;;;;;;;;;5068125;28;20067;-94
2022/11/16 14:13:32;;;;;;;21.45;14.05;;;;;;;;;;5068343;28;20143;-94
2022/11/16 14:16:18;;;;;;;23.95;13.60;;;;;;;;;;5072829;28;20044;-94
2022/11/16 14:18:45;;;;;;;25.83;16.63;;;;;;;;;;5069909;28;20039;-94
2022/11/16 14:21:30;;;;;;;33.13;15.52;;;;;;;;;;5071097;28;20052;-94
2022/11/16 14:24:15;;;;;;;24.00;13.30;;;;;;;;;;5075039;28;20040;-95
2022/11/16 14:26:44;;;;;;;37.50;21.52;;;;;;;;;;5073347;28;20115;-95
2022/11/16 14:29:26;;;;;;;20.10;11.57;;;;;;;;;;5073183;28;20047;-95
2022/11/16 14:31:52;;;;;;;32.08;20.63;;;;;;;;;;5069867;28;20203;-95
2022/11/16 14:34:26;;;;;;;13.32;8.07;;;;;;;;;;5070980;28;20044;-96
2022/11/16 14:36:52;;;;;;;16.02;9.23;;;;;;;;;;5062636;28;20181;-95
2022/11/16 14:39:27;;;;;;;31.58;18.85;;;;;;;;;;5077655;28;23049;-94
2022/11/16 14:41:56;;;;;;;25.40;17.75;;;;;;;;;;5072875;28;20063;-94
2022/11/16 14:44:24;;;;;;;14.68;7.95;;;;;;;;;;5060110;28;20044;-93
2022/11/16 14:46:50;;;;;;;16.67;9.73;;;;;;;;;;5058581;28;20050;-94
2022/11/16 14:49:19;;;;;;;25.63;15.93;;;;;;;;;;5052951;28;21501;-92
2022/11/16 14:52:07;;;;;;;17.08;9.07;;;;;;;;;;5063263;28;20436;-94
2022/11/16 14:54:33;;;;;;;20.65;15.57;;;;;;;;;;5073278;28;20791;-96
2022/11/16 14:57:03;;;;;;;22.23;13.45;;;;;;;;;;5057722;28;20089;-93
2022/11/16 14:59:30;;;;;;;18.73;11.40;;;;;;;;;;5068390;28;20062;-93
2022/11/16 15:01:59;;;;;;;16.13;8.15;;;;;;;;;;5054955;28;20122;-95
2022/11/16 15:04:26;;;;;;;20.63;13.27;;;;;;;;;;5064190;28;20083;-95
2022/11/16 15:06:57;;;;;;;20.25;11.20;;;;;;;;;;5058810;28;20057;-95
2022/11/16 15:09:46;;;;;;;13.88;7.88;;;;;;;;;;5056791;28;20161;-95
2022/11/16 15:15:26;;;;;;;22.90;11.25;;;;;;;;;;5078925;28;20071;-94
2022/11/16 15:18:05;;;;;;;22.35;12.35;;;;;;;;;;5048991;28;20546;-96
2022/11/16 15:20:33;;;;;;;21.08;12.68;;;;;;;;;;5081531;28;20082;-95